Gornji Humac, Croatia
Current Conditions -  °F | °C
As of 3:30 AM on Saturday 20 Dec 2014 (Local Time) from LDSP Reporting Station
Clear Clear  
Wind Chill: 45°   Ceiling: Unl
Heat Index: 45°   Visibility: 6mi
Dew Point: 43°   Wind: 1mph
Humidity: 93%   Direction: NA
Pressure: 30.21"   Gusts: NA
Location:  43.29°N, 16.71°E
Report Text: LDSP 200130Z VRB01KT CAVOK 07/06 Q1023
Loading
Personal Weather Stations






























Interactive Weather Map New forecast layout! Learn more

10-Day Weather Forecast

Advertisements
Track Severe Weather on mobile